Time;durP1;ratioP1;P1;durP2;ratioP2;P2;SDS_P1;SDS_P2;PMS_P1;PMS_P2;Temp;Humidity;BMP_temperature;BMP_pressure;BME280_temperature;BME280_humidity;BME280_pressure;Samples;Min_cycle;Max_cycle;Signal;HPM_P1;HPM_P2
2021/05/25 00:00:46;;;;;;;4.57;1.70;;;;;;;20.89;33.58;101095.63;5097423;28;20039;-77
2021/05/25 00:03:14;;;;;;;3.47;2.05;;;;;;;20.63;34.16;101099.22;5096241;28;20024;-75
2021/05/25 00:05:39;;;;;;;4.65;1.55;;;;;;;20.77;33.79;101106.94;5098488;28;20023;-78
2021/05/25 00:08:05;;;;;;;6.28;1.92;;;;;;;20.71;33.98;101098.16;5095698;28;20478;-77
2021/05/25 00:10:32;;;;;;;4.22;1.90;;;;;;;20.54;34.35;101103.41;5092688;28;20053;-80
2021/05/25 00:12:59;;;;;;;5.30;2.08;;;;;;;20.56;34.40;101106.63;5095160;28;20027;-77
2021/05/25 00:15:28;;;;;;;5.45;2.10;;;;;;;20.66;34.15;101108.78;5096562;28;20115;-79
2021/05/25 00:17:54;;;;;;;10.15;2.22;;;;;;;20.48;34.29;101112.06;5099065;28;20058;-77
2021/05/25 00:20:21;;;;;;;9.85;2.50;;;;;;;20.52;34.38;101122.41;5078188;28;20028;-76
2021/05/25 00:22:47;;;;;;;6.63;2.30;;;;;;;20.48;34.41;101122.38;5098674;28;20028;-76
2021/05/25 00:25:15;;;;;;;4.93;2.30;;;;;;;20.27;35.00;101124.75;5096200;28;20096;-81
2021/05/25 00:27:42;;;;;;;6.43;2.28;;;;;;;20.32;34.71;101128.00;5095315;28;20036;-76
2021/05/25 00:30:10;;;;;;;4.55;1.95;;;;;;;20.41;34.51;101120.25;5094967;28;20030;-80
2021/05/25 00:32:35;;;;;;;5.22;2.33;;;;;;;20.33;34.70;101132.41;5095436;28;20032;-75
2021/05/25 00:35:01;;;;;;;7.68;2.80;;;;;;;20.29;34.83;101125.97;5094578;28;20039;-75
2021/05/25 00:37:27;;;;;;;10.27;3.22;;;;;;;20.35;34.75;101134.81;5096344;28;20036;-79
2021/05/25 00:39:53;;;;;;;9.38;2.80;;;;;;;20.16;34.95;101124.53;5096251;28;20024;-77
2021/05/25 00:42:20;;;;;;;8.10;3.03;;;;;;;20.13;35.10;101134.41;5100878;28;20038;-76
2021/05/25 00:44:45;;;;;;;4.70;1.98;;;;;;;20.15;34.95;101137.59;5103559;28;20115;-75
2021/05/25 00:47:11;;;;;;;10.55;3.20;;;;;;;20.17;34.91;101140.81;5101217;28;20086;-77
2021/05/25 00:49:37;;;;;;;7.63;2.30;;;;;;;20.07;35.09;101141.41;5098716;28;20024;-77
2021/05/25 00:52:03;;;;;;;7.15;2.40;;;;;;;20.22;34.79;101137.75;5098009;28;20097;-76
2021/05/25 00:54:28;;;;;;;5.78;2.22;;;;;;;19.97;35.24;101152.31;5098253;28;20054;-77
2021/05/25 00:56:56;;;;;;;8.05;2.60;;;;;;;20.01;35.18;101147.63;5105114;28;20111;-79
2021/05/25 00:59:25;;;;;;;9.15;3.55;;;;;;;19.76;35.75;101147.94;5102339;28;20025;-77
2021/05/25 01:01:51;;;;;;;7.65;2.58;;;;;;;19.88;35.45;101153.34;5099997;28;20454;-75
2021/05/25 01:04:17;;;;;;;5.85;2.60;;;;;;;19.92;35.05;101156.19;5096132;28;20056;-77
2021/05/25 01:06:43;;;;;;;6.68;2.28;;;;;;;19.81;35.30;101157.97;5096357;28;20485;-78
2021/05/25 01:09:09;;;;;;;8.48;2.60;;;;;;;19.83;35.48;101153.66;5095291;28;20032;-79
2021/05/25 01:11:38;;;;;;;6.57;2.78;;;;;;;19.83;35.39;101161.97;5104357;28;20032;-75
2021/05/25 01:14:04;;;;;;;7.57;2.58;;;;;;;19.85;35.27;101170.72;5105797;28;20028;-78
2021/05/25 01:16:30;;;;;;;6.90;2.30;;;;;;;19.86;35.21;101166.75;5099956;28;20024;-76
2021/05/25 01:18:57;;;;;;;9.95;3.33;;;;;;;19.79;35.63;101172.16;5095796;28;20387;-75
2021/05/25 01:21:25;;;;;;;4.28;2.25;;;;;;;19.82;35.39;101174.22;5095752;28;20470;-78
2021/05/25 01:23:51;;;;;;;7.20;3.28;;;;;;;19.64;35.92;101175.81;5095727;28;20028;-78
2021/05/25 01:26:18;;;;;;;5.13;2.50;;;;;;;19.80;35.52;101175.75;5367069;22;20172;-74
2021/05/25 01:28:46;;;;;;;7.25;2.65;;;;;;;19.97;35.31;101180.88;5036819;28;20036;-74
2021/05/25 01:31:13;;;;;;;9.25;2.33;;;;;;;19.81;35.40;101178.16;5054365;28;20478;-74
2021/05/25 01:33:39;;;;;;;6.93;2.50;;;;;;;19.84;35.43;101185.75;5052608;28;20047;-74
2021/05/25 01:36:08;;;;;;;6.20;3.17;;;;;;;19.74;35.75;101182.75;5054834;28;20029;-74
2021/05/25 01:38:36;;;;;;;7.53;3.13;;;;;;;19.65;36.00;101194.06;5054170;28;20048;-74
2021/05/25 01:41:04;;;;;;;8.93;3.00;;;;;;;19.58;35.94;101185.59;5055005;28;20048;-74
2021/05/25 01:43:30;;;;;;;7.97;3.20;;;;;;;19.70;35.58;101188.22;5035895;28;20056;-74
2021/05/25 01:45:55;;;;;;;7.80;2.85;;;;;;;19.65;35.76;101194.88;5036897;28;20478;-74
2021/05/25 01:48:21;;;;;;;13.15;3.78;;;;;;;19.60;35.76;101195.16;5054881;28;20029;-75
2021/05/25 01:50:46;;;;;;;7.18;2.90;;;;;;;19.54;36.09;101193.00;5054708;28;20033;-74
2021/05/25 01:53:16;;;;;;;9.65;4.03;;;;;;;19.57;35.88;101195.06;5053623;28;20033;-74
2021/05/25 01:55:47;;;;;;;9.05;2.45;;;;;;;19.35;36.33;101205.66;5054698;28;20394;-76
2021/05/25 01:58:35;;;;;;;8.40;2.90;;;;;;;19.25;36.45;101200.66;5054407;28;20060;-74
2021/05/25 02:01:04;;;;;;;6.80;2.92;;;;;;;19.22;36.56;101206.94;5050725;28;20036;-78
2021/05/25 02:03:30;;;;;;;8.80;3.08;;;;;;;19.15;36.68;101212.31;5053112;28;20032;-78
2021/05/25 02:05:57;;;;;;;6.38;2.45;;;;;;;19.15;36.61;101211.50;5062124;28;20028;-80
2021/05/25 02:08:24;;;;;;;12.23;3.53;;;;;;;19.04;36.85;101212.06;5054722;28;20059;-75
2021/05/25 02:10:52;;;;;;;10.18;2.90;;;;;;;18.98;36.93;101216.25;5061364;28;20540;-74
2021/05/25 02:13:30;;;;;;;9.98;3.03;;;;;;;18.89;37.05;101223.94;5065558;28;20040;-78
2021/05/25 02:15:58;;;;;;;8.15;2.88;;;;;;;19.05;36.54;101223.94;5050035;28;20029;-79
2021/05/25 02:18:28;;;;;;;11.98;3.20;;;;;;;19.23;36.26;101221.59;5069122;28;20089;-75
2021/05/25 02:20:56;;;;;;;13.27;4.05;;;;;;;19.15;36.30;101222.59;5053565;28;20017;-75
2021/05/25 02:23:22;;;;;;;8.63;2.75;;;;;;;19.15;36.40;101225.34;5055630;28;20459;-75
2021/05/25 02:25:48;;;;;;;10.43;2.80;;;;;;;19.07;36.43;101222.41;5055561;28;20029;-77
2021/05/25 02:28:14;;;;;;;12.65;3.03;;;;;;;19.02;36.32;101233.75;5054911;28;20540;-77
2021/05/25 02:30:41;;;;;;;7.40;2.58;;;;;;;18.95;36.43;101241.09;5062346;28;20035;-75
2021/05/25 02:33:10;;;;;;;10.38;2.72;;;;;;;19.04;36.31;101236.16;5068363;28;20025;-80
2021/05/25 02:35:37;;;;;;;9.20;2.80;;;;;;;18.94;36.48;101242.25;5053535;28;20034;-75
2021/05/25 02:38:04;;;;;;;9.25;2.95;;;;;;;18.76;36.85;101245.38;5061072;28;20063;-78
2021/05/25 02:40:31;;;;;;;10.55;4.20;;;;;;;18.68;37.04;101242.78;5068707;28;20021;-75
2021/05/25 02:42:57;;;;;;;6.68;3.13;;;;;;;18.64;37.26;101242.66;5057979;28;20025;-76
2021/05/25 02:45:22;;;;;;;9.98;3.75;;;;;;;18.55;37.29;101236.47;5055088;28;20028;-75
2021/05/25 02:47:48;;;;;;;7.70;3.95;;;;;;;18.60;37.28;101244.53;5055294;28;20021;-78
2021/05/25 02:50:14;;;;;;;12.63;3.42;;;;;;;18.50;37.63;101245.03;5054829;28;20483;-75
2021/05/25 02:52:42;;;;;;;9.75;3.03;;;;;;;18.47;37.67;101242.97;5054860;28;20529;-75
2021/05/25 02:55:11;;;;;;;7.57;3.05;;;;;;;18.53;37.49;101239.59;5054959;28;20017;-77
2021/05/25 02:57:38;;;;;;;9.00;3.38;;;;;;;18.47;37.76;101243.78;5059158;28;20027;-74
2021/05/25 03:00:09;;;;;;;12.85;3.85;;;;;;;18.39;37.85;101253.06;5055028;28;20106;-73
2021/05/25 03:02:35;;;;;;;14.23;4.53;;;;;;;18.26;38.06;101254.25;5054841;28;20029;-82
2021/05/25 03:05:01;;;;;;;8.98;3.15;;;;;;;18.36;37.85;101253.75;5062992;28;20040;-74
2021/05/25 03:07:26;;;;;;;9.68;3.50;;;;;;;18.19;38.24;101257.63;5059598;28;20033;-75
2021/05/25 03:09:52;;;;;;;10.57;3.60;;;;;;;18.11;38.51;101260.53;5060349;28;20024;-83
2021/05/25 03:12:18;;;;;;;9.07;2.97;;;;;;;18.05;38.64;101259.97;5061393;28;20082;-74
2021/05/25 03:14:43;;;;;;;12.63;4.28;;;;;;;18.16;38.35;101266.63;5055239;28;20028;-75
2021/05/25 03:17:09;;;;;;;9.35;3.47;;;;;;;18.13;38.32;101264.56;5058200;28;20099;-84
2021/05/25 03:19:35;;;;;;;11.32;4.15;;;;;;;18.05;38.46;101264.72;5054299;28;20402;-76
2021/05/25 03:22:00;;;;;;;8.35;3.40;;;;;;;17.98;38.65;101273.59;5067402;28;20037;-81
2021/05/25 03:24:26;;;;;;;11.73;4.15;;;;;;;18.04;38.51;101266.66;5055827;28;20031;-78
2021/05/25 03:26:52;;;;;;;10.48;3.47;;;;;;;18.09;38.32;101271.16;5053701;28;20045;-81
2021/05/25 03:29:17;;;;;;;9.35;3.55;;;;;;;17.95;38.75;101279.84;5063147;28;20028;-83
2021/05/25 03:31:43;;;;;;;12.90;4.50;;;;;;;18.10;38.35;101273.56;5062446;28;20027;-78
2021/05/25 03:34:09;;;;;;;8.05;3.35;;;;;;;18.13;38.30;101280.34;5062837;28;20082;-80
2021/05/25 03:36:35;;;;;;;8.32;3.40;;;;;;;18.15;38.15;101281.63;5060503;28;20025;-85
2021/05/25 03:39:00;;;;;;;8.35;3.80;;;;;;;18.11;38.11;101279.91;5057592;28;20390;-79
2021/05/25 03:41:26;;;;;;;8.88;3.63;;;;;;;17.98;38.56;101277.16;5064582;28;20025;-75
2021/05/25 03:43:51;;;;;;;10.57;3.38;;;;;;;18.05;38.53;101279.34;5062240;28;20064;-76
2021/05/25 03:46:17;;;;;;;9.25;4.15;;;;;;;18.13;38.11;101280.34;5061493;28;20056;-75
2021/05/25 03:48:42;;;;;;;13.23;3.70;;;;;;;18.23;37.93;101283.44;5043177;28;20025;-74
2021/05/25 03:51:08;;;;;;;9.75;3.28;;;;;;;18.23;38.07;101288.16;5060823;28;20020;-82
2021/05/25 03:53:34;;;;;;;7.97;3.45;;;;;;;18.16;38.29;101286.00;5061874;28;20033;-76
2021/05/25 03:58:50;;;;;;;9.27;3.70;;;;;;;18.00;38.63;101287.91;5059263;28;20021;-75
2021/05/25 04:01:23;;;;;;;13.90;4.07;;;;;;;18.09;38.58;101294.09;5062184;28;20056;-74
2021/05/25 04:03:50;;;;;;;7.32;3.65;;;;;;;17.90;38.85;101291.13;5041551;28;20021;-75
2021/05/25 04:06:17;;;;;;;13.68;3.42;;;;;;;17.96;38.76;101295.25;5061052;28;20028;-79
2021/05/25 04:08:44;;;;;;;7.93;3.45;;;;;;;17.87;39.03;101294.59;5062704;28;20024;-73
2021/05/25 04:11:09;;;;;;;12.80;3.78;;;;;;;17.65;39.85;101307.72;5058879;28;20052;-76
2021/05/25 04:13:36;;;;;;;11.35;4.25;;;;;;;17.94;38.87;101297.59;5041300;28;20078;-79
2021/05/25 04:16:01;;;;;;;10.77;3.63;;;;;;;17.78;39.30;101293.94;5062319;28;20079;-75
2021/05/25 04:18:27;;;;;;;9.93;3.40;;;;;;;17.78;39.62;101305.00;5062931;28;20021;-73
2021/05/25 04:20:53;;;;;;;13.55;4.13;;;;;;;18.01;39.05;101295.03;5062859;28;20016;-79
2021/05/25 04:23:19;;;;;;;7.43;3.88;;;;;;;18.00;39.20;101301.72;5061991;28;20103;-74
2021/05/25 04:25:45;;;;;;;9.82;4.38;;;;;;;18.19;38.66;101299.13;5036535;28;20083;-74
2021/05/25 04:28:10;;;;;;;14.93;4.50;;;;;;;18.30;38.71;101291.94;5061183;28;20051;-75
2021/05/25 04:30:36;;;;;;;15.52;5.68;;;;;;;18.42;38.46;101298.56;5061676;28;20017;-75
2021/05/25 04:33:02;;;;;;;12.52;4.35;;;;;;;18.35;38.70;101295.59;5056994;28;20021;-74
2021/05/25 04:35:28;;;;;;;12.20;4.07;;;;;;;18.43;38.64;101305.72;5050651;28;20025;-74
2021/05/25 04:37:56;;;;;;;13.82;4.15;;;;;;;18.34;39.02;101310.59;5050630;28;20550;-74
2021/05/25 04:40:22;;;;;;;11.38;4.50;;;;;;;18.42;38.91;101309.63;5051508;28;20033;-74
2021/05/25 04:42:47;;;;;;;9.68;3.97;;;;;;;18.11;40.03;101313.09;5051436;28;20025;-73
2021/05/25 04:45:14;;;;;;;20.85;6.35;;;;;;;18.01;40.19;101309.66;5033641;28;20059;-74
2021/05/25 04:47:40;;;;;;;10.95;4.82;;;;;;;18.48;39.31;101316.53;5051500;28;20029;-77
2021/05/25 04:50:08;;;;;;;24.70;7.28;;;;;;;18.58;38.69;101319.59;5051150;28;20021;-74
2021/05/25 04:52:35;;;;;;;17.98;5.35;;;;;;;18.75;38.72;101324.06;5051651;28;20026;-73
2021/05/25 04:55:02;;;;;;;17.23;5.60;;;;;;;18.77;38.68;101332.81;5051915;28;20483;-74
2021/05/25 04:57:29;;;;;;;17.67;5.72;;;;;;;18.83;38.52;101330.59;5051978;28;20555;-74
2021/05/25 04:59:55;;;;;;;13.40;4.93;;;;;;;18.93;38.27;101337.56;5051971;28;20032;-74
2021/05/25 05:02:21;;;;;;;13.10;5.45;;;;;;;18.81;38.54;101332.88;5033877;28;20032;-77
2021/05/25 05:04:47;;;;;;;10.60;4.75;;;;;;;18.76;38.71;101333.16;5051789;28;20025;-73
2021/05/25 05:07:12;;;;;;;11.82;5.45;;;;;;;18.96;38.41;101345.94;5033913;28;20387;-73
2021/05/25 05:09:38;;;;;;;11.38;4.80;;;;;;;18.99;38.28;101341.69;5034069;28;20028;-73
2021/05/25 05:12:04;;;;;;;15.60;6.22;;;;;;;18.89;38.69;101342.19;5051441;28;20413;-74
2021/05/25 05:14:30;;;;;;;24.88;7.05;;;;;;;18.88;38.82;101346.13;5051299;28;20029;-73
2021/05/25 05:16:55;;;;;;;20.75;6.22;;;;;;;19.14;38.36;101346.44;5051205;28;20036;-75
2021/05/25 05:19:21;;;;;;;16.30;4.88;;;;;;;19.16;38.08;101348.84;5033887;28;20036;-74
2021/05/25 05:21:47;;;;;;;15.23;5.25;;;;;;;19.11;38.19;101344.34;5051620;28;20033;-73
2021/05/25 05:24:12;;;;;;;12.35;5.63;;;;;;;19.20;38.18;101347.78;5051687;28;20029;-74
2021/05/25 05:26:38;;;;;;;16.45;5.65;;;;;;;19.28;37.94;101354.31;5051134;28;20498;-74
2021/05/25 05:29:04;;;;;;;19.85;5.35;;;;;;;19.25;38.29;101341.97;5055012;28;20029;-77
2021/05/25 05:31:29;;;;;;;15.95;6.72;;;;;;;19.38;38.02;101357.34;5037221;28;20032;-74
2021/05/25 05:33:55;;;;;;;16.15;5.78;;;;;;;19.35;38.09;101358.06;5055257;28;20104;-73
2021/05/25 05:36:20;;;;;;;12.98;4.97;;;;;;;19.29;38.42;101362.25;5055116;28;20083;-74
2021/05/25 05:38:46;;;;;;;10.43;5.13;;;;;;;19.37;38.37;101366.00;5055081;28;20430;-74
2021/05/25 05:41:13;;;;;;;13.35;5.90;;;;;;;19.46;38.46;101363.84;5054986;28;20039;-74
2021/05/25 05:43:38;;;;;;;12.90;5.15;;;;;;;19.54;38.14;101371.19;5054672;28;20536;-74
2021/05/25 05:46:04;;;;;;;18.42;6.22;;;;;;;19.62;38.45;101370.22;5054646;28;20029;-74
2021/05/25 05:48:30;;;;;;;17.70;6.20;;;;;;;19.71;38.65;101366.44;5054383;28;20523;-74
2021/05/25 05:50:56;;;;;;;12.75;6.15;;;;;;;19.99;38.51;101372.66;5054853;28;20028;-74
2021/05/25 05:53:23;;;;;;;13.18;6.35;;;;;;;20.39;37.88;101366.00;5054858;28;20112;-74
2021/05/25 05:55:49;;;;;;;33.92;7.97;;;;;;;20.46;38.05;101377.28;5054738;28;20120;-73
2021/05/25 05:58:15;;;;;;;10.07;4.95;;;;;;;20.62;38.03;101372.47;5054673;28;20067;-74
2021/05/25 06:00:42;;;;;;;13.88;6.13;;;;;;;20.98;37.41;101385.06;5054684;28;20063;-74
2021/05/25 06:03:10;;;;;;;19.42;5.68;;;;;;;21.01;37.58;101387.13;5054590;28;20087;-74
2021/05/25 06:05:36;;;;;;;22.92;6.60;;;;;;;21.28;37.11;101393.59;5054657;28;20430;-74
2021/05/25 06:08:06;;;;;;;22.90;6.00;;;;;;;21.21;37.40;101378.72;5054466;28;20021;-80
2021/05/25 06:10:34;;;;;;;25.15;6.80;;;;;;;21.35;37.19;101379.00;5054458;28;20128;-82
2021/05/25 06:12:59;;;;;;;15.43;6.00;;;;;;;21.40;37.04;101378.72;5054496;28;20046;-74
2021/05/25 06:15:25;;;;;;;13.90;5.00;;;;;;;21.48;36.80;101386.00;5054186;28;20017;-74
2021/05/25 06:17:52;;;;;;;14.98;5.25;;;;;;;21.51;37.01;101388.03;5053452;28;20025;-74
2021/05/25 06:20:17;;;;;;;13.10;4.88;;;;;;;21.36;37.24;101388.94;5054286;28;20479;-74
2021/05/25 06:22:43;;;;;;;14.90;6.05;;;;;;;21.34;37.37;101396.88;5053814;28;20123;-75
2021/05/25 06:25:10;;;;;;;19.02;6.30;;;;;;;21.43;37.29;101396.63;5055053;28;20027;-74
2021/05/25 06:27:36;;;;;;;10.68;4.63;;;;;;;21.41;37.46;101398.97;5052884;28;20521;-74
2021/05/25 06:30:03;;;;;;;13.18;6.25;;;;;;;21.50;37.17;101389.19;5054042;28;20028;-74
2021/05/25 06:32:29;;;;;;;14.00;6.32;;;;;;;21.69;37.10;101390.28;5053992;28;20036;-74
2021/05/25 06:34:54;;;;;;;18.13;6.03;;;;;;;21.98;36.44;101405.44;5035567;28;20013;-74
2021/05/25 06:37:20;;;;;;;18.65;7.03;;;;;;;22.02;36.56;101403.53;5053904;28;20082;-80
2021/05/25 06:39:46;;;;;;;17.13;5.65;;;;;;;22.07;36.40;101397.66;5053810;28;20055;-73
2021/05/25 06:42:11;;;;;;;37.10;7.88;;;;;;;22.13;36.52;101404.50;5053905;28;20540;-80
2021/05/25 06:44:38;;;;;;;20.08;6.05;;;;;;;22.00;36.94;101412.25;5053804;28;20086;-74
2021/05/25 06:47:03;;;;;;;14.60;5.07;;;;;;;22.23;36.40;101400.28;5035709;28;20032;-74
2021/05/25 06:49:29;;;;;;;47.20;9.45;;;;;;;22.07;36.55;101404.00;5035950;28;20029;-74
2021/05/25 06:51:55;;;;;;;19.42;6.72;;;;;;;22.27;36.11;101401.13;5053659;28;20124;-76
2021/05/25 06:54:20;;;;;;;14.52;4.90;;;;;;;22.43;35.99;101401.72;5053592;28;20029;-74
2021/05/25 06:56:46;;;;;;;26.30;6.90;;;;;;;22.40;36.10;101405.28;5053617;28;20052;-73
2021/05/25 06:59:12;;;;;;;17.38;5.50;;;;;;;22.60;35.83;101405.94;5053517;28;20033;-81
2021/05/25 07:01:37;;;;;;;14.60;5.40;;;;;;;22.63;35.90;101402.41;5053699;28;20037;-73
2021/05/25 07:04:03;;;;;;;21.70;6.43;;;;;;;22.54;36.25;101402.69;5053456;28;20043;-80
2021/05/25 07:06:29;;;;;;;25.13;6.03;;;;;;;22.88;35.71;101394.34;5053517;28;20394;-73
2021/05/25 07:08:55;;;;;;;13.73;5.40;;;;;;;23.06;35.54;101400.13;5053369;28;20033;-73
2021/05/25 07:11:23;;;;;;;17.17;6.32;;;;;;;22.85;35.66;101412.63;5035552;28;20501;-74
2021/05/25 07:13:49;;;;;;;14.80;5.20;;;;;;;23.09;34.87;101405.72;5053234;28;20037;-74
2021/05/25 07:16:15;;;;;;;13.70;4.90;;;;;;;23.09;34.70;101405.72;5053324;28;20061;-73
2021/05/25 07:18:41;;;;;;;13.90;5.20;;;;;;;23.32;34.65;101401.97;5047014;28;20394;-73
2021/05/25 07:21:07;;;;;;;17.15;5.32;;;;;;;23.48;34.33;101400.53;5051179;28;20086;-73
2021/05/25 07:23:34;;;;;;;18.25;5.32;;;;;;;23.65;33.60;101407.47;5035060;28;20436;-74
2021/05/25 07:26:00;;;;;;;12.57;5.05;;;;;;;23.71;33.48;101405.91;5052694;28;20025;-78
2021/05/25 07:28:26;;;;;;;13.73;5.57;;;;;;;23.66;33.47;101411.88;5035186;28;20029;-74
2021/05/25 07:30:51;;;;;;;15.13;4.60;;;;;;;23.72;33.35;101407.53;5052769;28;20028;-74
2021/05/25 07:33:17;;;;;;;17.80;4.03;;;;;;;23.73;32.98;101403.56;5052894;28;20029;-74
2021/05/25 07:35:43;;;;;;;13.85;4.50;;;;;;;24.04;32.63;101415.34;5052868;28;20021;-80
2021/05/25 07:38:08;;;;;;;11.80;3.80;;;;;;;23.93;32.64;101412.47;5051925;28;20108;-74
2021/05/25 07:40:34;;;;;;;11.63;3.90;;;;;;;23.94;32.52;101407.69;5052090;28;20364;-78
2021/05/25 07:43:00;;;;;;;25.70;6.28;;;;;;;24.22;32.48;101405.06;5051933;28;20058;-74
2021/05/25 07:45:26;;;;;;;19.48;6.13;;;;;;;24.19;32.68;101413.44;5051922;28;20028;-78
2021/05/25 07:47:52;;;;;;;12.25;4.40;;;;;;;23.92;32.86;101390.53;5052553;28;20390;-74
2021/05/25 07:50:18;;;;;;;17.52;4.03;;;;;;;24.13;32.24;101413.00;5052003;28;20077;-79
2021/05/25 07:52:49;;;;;;;31.25;6.40;;;;;;;24.15;31.95;101409.81;5057296;28;20025;-79
2021/05/25 07:55:18;;;;;;;12.73;4.28;;;;;;;24.39;31.79;101408.38;5060577;28;20052;-75
2021/05/25 07:57:43;;;;;;;11.23;3.88;;;;;;;24.08;32.42;101410.56;5061914;28;20020;-76
2021/05/25 08:00:11;;;;;;;13.18;3.60;;;;;;;24.25;32.02;101409.88;5052333;28;20036;-74
2021/05/25 08:02:41;;;;;;;12.57;3.67;;;;;;;23.89;31.99;101419.22;5060454;28;20079;-74
2021/05/25 08:05:08;;;;;;;15.55;4.35;;;;;;;24.15;31.46;101410.63;5061410;28;20028;-75
2021/05/25 08:07:34;;;;;;;11.73;4.07;;;;;;;24.13;31.42;101418.59;5062451;28;20029;-76
2021/05/25 08:10:02;;;;;;;23.08;5.00;;;;;;;24.19;31.37;101417.03;5057907;28;20562;-74
2021/05/25 08:12:28;;;;;;;11.32;3.28;;;;;;;24.17;31.21;101408.22;5042541;28;20027;-75
2021/05/25 08:14:55;;;;;;;15.60;4.13;;;;;;;24.51;30.99;101405.25;5062059;28;20030;-75
2021/05/25 08:17:36;;;;;;;21.08;4.38;;;;;;;24.24;31.01;101401.88;5057990;28;20475;-75
2021/05/25 08:20:18;;;;;;;10.57;3.08;;;;;;;24.15;31.00;101415.41;5054507;28;20351;-79
2021/05/25 08:22:49;;;;;;;20.48;5.57;;;;;;;24.54;30.88;101415.63;5058696;28;20020;-74
2021/05/25 08:25:16;;;;;;;12.75;3.35;;;;;;;24.60;30.74;101414.88;5060013;28;20033;-78
2021/05/25 08:27:42;;;;;;;10.45;3.65;;;;;;;24.88;30.47;101419.78;5061528;28;20052;-74
2021/05/25 08:30:09;;;;;;;9.88;3.05;;;;;;;24.60;30.34;101414.06;5061352;28;20375;-73
2021/05/25 08:32:36;;;;;;;11.98;3.05;;;;;;;24.81;29.98;101421.75;5062722;28;20052;-80
2021/05/25 08:35:03;;;;;;;13.68;4.60;;;;;;;24.80;29.85;101423.75;5058840;28;20040;-78
2021/05/25 08:37:29;;;;;;;9.13;2.88;;;;;;;24.90;29.97;101420.16;5061314;28;20056;-75
2021/05/25 08:39:54;;;;;;;9.57;2.78;;;;;;;25.13;29.56;101421.84;5059887;28;20029;-77
2021/05/25 08:42:20;;;;;;;11.13;3.05;;;;;;;24.93;29.43;101429.75;5062012;28;20031;-74
2021/05/25 08:44:46;;;;;;;28.20;4.63;;;;;;;25.05;29.10;101418.25;5060773;28;20029;-73
2021/05/25 08:47:12;;;;;;;11.00;3.70;;;;;;;25.20;28.98;101430.25;5042401;28;20495;-73
2021/05/25 08:49:40;;;;;;;5.90;2.00;;;;;;;25.22;28.21;101419.47;5062296;28;20465;-75
2021/05/25 08:52:08;;;;;;;15.35;4.28;;;;;;;25.59;28.78;101418.31;5058273;28;20025;-75
2021/05/25 08:54:34;;;;;;;12.98;2.72;;;;;;;25.88;28.92;101417.13;5059918;28;20027;-73
2021/05/25 08:56:59;;;;;;;10.40;3.05;;;;;;;25.91;28.32;101424.72;5057311;28;20025;-73
2021/05/25 08:59:25;;;;;;;8.27;3.30;;;;;;;25.99;28.56;101420.69;5061135;28;20093;-75
2021/05/25 09:01:51;;;;;;;10.25;3.13;;;;;;;26.03;28.01;101437.50;5059847;28;20080;-75
2021/05/25 09:04:17;;;;;;;15.48;3.50;;;;;;;26.07;27.99;101429.09;5063178;28;20029;-74
2021/05/25 09:06:46;;;;;;;8.38;2.75;;;;;;;26.02;27.59;101423.91;5064073;28;20025;-74
2021/05/25 09:09:14;;;;;;;10.55;3.03;;;;;;;26.02;28.07;101418.31;5063707;28;20112;-79
2021/05/25 09:12:02;;;;;;;10.68;3.45;;;;;;;26.06;28.09;101417.09;5064040;28;20029;-75
2021/05/25 09:14:29;;;;;;;10.30;3.08;;;;;;;26.28;27.91;101417.84;5061519;28;20379;-74
2021/05/25 09:17:24;;;;;;;14.57;3.55;;;;;;;25.63;27.52;101419.91;5062791;28;20056;-75
2021/05/25 09:19:55;;;;;;;10.85;2.75;;;;;;;26.02;27.14;101421.91;5061557;28;20060;-80
2021/05/25 09:22:35;;;;;;;9.18;2.72;;;;;;;26.12;26.95;101423.88;5059560;28;20513;-76
2021/05/25 09:25:15;;;;;;;10.95;3.25;;;;;;;26.22;27.22;101422.25;5060144;28;20036;-74
2021/05/25 09:27:48;;;;;;;8.73;2.17;;;;;;;26.38;27.16;101427.44;5061074;28;20399;-79
2021/05/25 09:30:20;;;;;;;19.52;4.47;;;;;;;26.02;27.39;101418.31;5055350;28;20025;-81
2021/05/25 09:32:53;;;;;;;15.90;3.00;;;;;;;26.00;27.32;101421.53;5048195;28;20017;-77
2021/05/25 09:35:21;;;;;;;8.27;2.72;;;;;;;25.90;27.46;101425.91;5049777;28;20044;-77
2021/05/25 09:37:53;;;;;;;14.25;3.33;;;;;;;25.64;27.26;101420.72;5054306;28;20017;-73
2021/05/25 09:40:30;;;;;;;9.95;2.53;;;;;;;25.69;27.47;101417.50;5047739;28;20083;-74
2021/05/25 09:43:27;;;;;;;10.88;3.20;;;;;;;25.44;27.69;101418.28;5054056;28;20041;-82
2021/05/25 09:45:55;;;;;;;13.93;3.22;;;;;;;25.71;27.56;101409.53;5063451;28;20036;-83
2021/05/25 09:48:25;;;;;;;15.30;2.85;;;;;;;25.73;27.64;101407.16;5054743;28;20036;-76
2021/05/25 09:50:53;;;;;;;9.35;3.17;;;;;;;26.27;27.21;101407.84;5061952;28;20036;-73
2021/05/25 09:53:23;;;;;;;15.93;3.13;;;;;;;26.49;27.08;101403.00;5059711;28;20028;-73
2021/05/25 09:55:50;;;;;;;11.60;2.50;;;;;;;26.67;26.30;101411.31;5054603;28;20475;-73
2021/05/25 09:58:17;;;;;;;6.05;2.47;;;;;;;26.70;25.73;101411.31;5054472;28;20067;-72
2021/05/25 10:00:45;;;;;;;9.52;2.90;;;;;;;26.53;25.87;101415.00;5054550;28;20047;-73
2021/05/25 10:03:17;;;;;;;6.93;2.38;;;;;;;26.65;25.27;101408.94;5054261;28;20032;-74
2021/05/25 10:05:48;;;;;;;11.95;2.65;;;;;;;26.71;25.85;101412.13;5036398;28;20364;-73
2021/05/25 10:08:15;;;;;;;12.23;2.95;;;;;;;26.92;25.26;101408.41;5036507;28;20083;-72
2021/05/25 10:10:42;;;;;;;18.33;4.05;;;;;;;26.50;25.82;101410.19;5054359;28;20094;-72
2021/05/25 10:13:09;;;;;;;8.20;2.88;;;;;;;26.57;25.35;101409.38;5035288;28;20067;-72
2021/05/25 10:15:34;;;;;;;5.50;2.08;;;;;;;26.62;25.29;101406.97;5036279;28;20116;-72
2021/05/25 10:20:30;;;;;;;9.80;2.80;;;;;;;26.69;25.38;101403.31;5053879;28;20029;-72
2021/05/25 10:22:56;;;;;;;;;;;;;;;26.80;25.29;101395.66;5052892;28;20029;-72
2021/05/25 10:25:22;;;;;;;8.43;2.70;;;;;;;27.07;25.03;101405.13;5048892;28;19931;-72
2021/05/25 10:27:49;;;;;;;11.48;2.60;;;;;;;27.25;24.84;101404.22;5033698;28;20081;-72
2021/05/25 10:30:24;;;;;;;7.95;2.13;;;;;;;27.30;24.39;101407.38;5052378;28;20067;-72
2021/05/25 10:32:51;;;;;;;5.50;2.00;;;;;;;27.32;24.28;101404.97;5036332;28;20051;-72
2021/05/25 10:35:19;;;;;;;6.43;1.98;;;;;;;27.16;24.15;101409.50;5064355;28;20506;-72
2021/05/25 10:38:04;;;;;;;14.30;2.38;;;;;;;27.30;25.59;101400.97;5062237;28;20042;-72
2021/05/25 10:40:40;;;;;;;10.43;2.28;;;;;;;27.36;25.51;101404.94;5042169;28;20033;-72
2021/05/25 10:43:30;;;;;;;9.23;2.20;;;;;;;27.56;25.36;101399.56;5043031;28;20060;-72
2021/05/25 10:46:11;;;;;;;11.77;2.40;;;;;;;26.96;25.84;101404.38;5027112;28;20470;-77
2021/05/25 10:51:44;;;;;;;6.07;2.78;;;;;;;27.30;25.40;101396.16;5044207;28;20091;-72
2021/05/25 10:54:35;;;;;;;11.38;3.40;;;;;;;27.19;26.00;101400.25;5030931;28;20033;-79
2021/05/25 10:57:37;;;;;;;13.43;2.20;;;;;;;26.96;26.57;101398.75;5048301;28;20029;-71
2021/05/25 11:00:12;;;;;;;39.40;6.78;;;;;;;27.16;26.21;101395.47;5042548;28;20044;-79
2021/05/25 11:02:46;;;;;;;5.85;2.58;;;;;;;26.70;27.12;101410.53;5056855;28;20825;-74
2021/05/25 11:05:27;;;;;;;16.45;3.47;;;;;;;26.60;27.50;101405.75;5058022;28;20040;-80
2021/05/25 11:07:54;;;;;;;9.50;2.95;;;;;;;26.54;27.24;101416.59;5050491;28;20124;-79
2021/05/25 11:10:29;;;;;;;20.98;4.60;;;;;;;26.11;27.90;101411.09;5041988;28;20025;-73
2021/05/25 11:13:20;;;;;;;7.53;2.88;;;;;;;25.89;28.51;101409.53;5067374;28;20055;-74
2021/05/25 11:16:13;;;;;;;12.80;4.38;;;;;;;26.09;28.16;101413.50;5054893;28;20428;-80
2021/05/25 11:24:41;;;;;;;7.95;1.98;;;;;;;26.26;27.91;101397.84;5069731;28;20402;-77
2021/05/25 11:27:35;;;;;;;6.47;2.30;;;;;;;26.55;26.69;101402.19;5058558;28;20570;-79
2021/05/25 11:30:22;;;;;;;9.70;2.35;;;;;;;26.29;26.21;101395.03;5042461;28;20127;-73
2021/05/25 11:32:50;;;;;;;20.52;4.57;;;;;;;27.02;25.66;101387.91;5063458;28;20490;-74
2021/05/25 11:35:22;;;;;;;7.53;1.77;;;;;;;27.12;25.63;101391.88;5037520;28;20029;-78
2021/05/25 11:37:57;;;;;;;2.17;1.10;;;;;;;27.44;24.81;101384.03;5037245;28;20410;-77
2021/05/25 11:40:29;;;;;;;7.65;1.95;;;;;;;27.59;24.18;101382.72;5059075;28;20025;-73